sensor_id;sensor_type;location;lat;lon;timestamp;P1;durP1;ratioP1;P2;durP2;ratioP2
12625;SDS011;6378;42.684;23.372;2023-06-22T00:01:49;15.88;;;14.32;;
12625;SDS011;6378;42.684;23.372;2023-06-22T00:04:15;16.05;;;13.52;;
12625;SDS011;6378;42.684;23.372;2023-06-22T00:06:40;13.13;;;11.82;;
12625;SDS011;6378;42.684;23.372;2023-06-22T00:09:05;14.65;;;13.20;;
12625;SDS011;6378;42.684;23.372;2023-06-22T00:11:32;15.02;;;13.60;;
12625;SDS011;6378;42.684;23.372;2023-06-22T00:13:58;15.82;;;14.10;;
12625;SDS011;6378;42.684;23.372;2023-06-22T00:16:24;17.88;;;14.38;;
12625;SDS011;6378;42.684;23.372;2023-06-22T00:18:50;15.63;;;14.02;;
12625;SDS011;6378;42.684;23.372;2023-06-22T00:21:16;15.70;;;14.20;;
12625;SDS011;6378;42.684;23.372;2023-06-22T00:23:41;16.50;;;14.80;;
12625;SDS011;6378;42.684;23.372;2023-06-22T00:26:08;19.65;;;16.27;;
12625;SDS011;6378;42.684;23.372;2023-06-22T00:28:33;19.35;;;16.52;;
12625;SDS011;6378;42.684;23.372;2023-06-22T00:30:59;19.48;;;15.68;;
12625;SDS011;6378;42.684;23.372;2023-06-22T00:33:25;16.88;;;15.07;;
12625;SDS011;6378;42.684;23.372;2023-06-22T00:35:51;18.38;;;15.75;;
12625;SDS011;6378;42.684;23.372;2023-06-22T00:38:18;15.57;;;13.93;;
12625;SDS011;6378;42.684;23.372;2023-06-22T00:40:44;15.85;;;14.15;;
12625;SDS011;6378;42.684;23.372;2023-06-22T00:43:09;20.08;;;15.50;;
12625;SDS011;6378;42.684;23.372;2023-06-22T00:45:35;17.38;;;14.27;;
12625;SDS011;6378;42.684;23.372;2023-06-22T00:48:01;16.30;;;14.68;;
12625;SDS011;6378;42.684;23.372;2023-06-22T00:50:28;15.25;;;13.75;;
12625;SDS011;6378;42.684;23.372;2023-06-22T00:52:59;14.95;;;13.30;;
12625;SDS011;6378;42.684;23.372;2023-06-22T00:55:25;16.65;;;14.93;;
12625;SDS011;6378;42.684;23.372;2023-06-22T00:57:51;16.60;;;14.88;;
12625;SDS011;6378;42.684;23.372;2023-06-22T01:00:21;18.17;;;16.27;;
12625;SDS011;6378;42.684;23.372;2023-06-22T01:02:49;17.38;;;15.70;;
12625;SDS011;6378;42.684;23.372;2023-06-22T01:05:18;19.83;;;17.77;;
12625;SDS011;6378;42.684;23.372;2023-06-22T01:07:55;17.90;;;16.15;;
12625;SDS011;6378;42.684;23.372;2023-06-22T01:15:52;17.55;;;15.52;;
12625;SDS011;6378;42.684;23.372;2023-06-22T01:18:22;16.88;;;15.27;;
12625;SDS011;6378;42.684;23.372;2023-06-22T01:20:51;16.83;;;14.82;;
12625;SDS011;6378;42.684;23.372;2023-06-22T01:23:27;16.38;;;14.60;;
12625;SDS011;6378;42.684;23.372;2023-06-22T01:29:07;17.35;;;15.65;;
12625;SDS011;6378;42.684;23.372;2023-06-22T01:31:37;18.95;;;16.80;;
12625;SDS011;6378;42.684;23.372;2023-06-22T01:34:06;25.63;;;22.17;;
12625;SDS011;6378;42.684;23.372;2023-06-22T01:36:33;26.35;;;23.52;;
12625;SDS011;6378;42.684;23.372;2023-06-22T01:39:00;39.38;;;34.60;;
12625;SDS011;6378;42.684;23.372;2023-06-22T01:41:29;52.38;;;45.80;;
12625;SDS011;6378;42.684;23.372;2023-06-22T01:43:56;44.28;;;39.35;;
12625;SDS011;6378;42.684;23.372;2023-06-22T01:46:23;54.92;;;48.80;;
12625;SDS011;6378;42.684;23.372;2023-06-22T01:48:49;71.88;;;60.72;;
12625;SDS011;6378;42.684;23.372;2023-06-22T01:51:16;78.25;;;69.80;;
12625;SDS011;6378;42.684;23.372;2023-06-22T01:53:41;99.45;;;89.28;;
12625;SDS011;6378;42.684;23.372;2023-06-22T01:56:07;98.13;;;87.88;;
12625;SDS011;6378;42.684;23.372;2023-06-22T01:58:33;89.75;;;79.18;;
12625;SDS011;6378;42.684;23.372;2023-06-22T02:01:20;59.95;;;53.30;;
12625;SDS011;6378;42.684;23.372;2023-06-22T02:04:00;39.22;;;35.03;;
12625;SDS011;6378;42.684;23.372;2023-06-22T02:06:35;68.15;;;57.85;;
12625;SDS011;6378;42.684;23.372;2023-06-22T02:09:06;42.40;;;37.85;;
12625;SDS011;6378;42.684;23.372;2023-06-22T02:11:35;37.65;;;33.80;;
12625;SDS011;6378;42.684;23.372;2023-06-22T02:14:02;30.23;;;27.17;;
12625;SDS011;6378;42.684;23.372;2023-06-22T02:16:28;21.92;;;19.73;;
12625;SDS011;6378;42.684;23.372;2023-06-22T02:18:55;25.38;;;22.67;;
12625;SDS011;6378;42.684;23.372;2023-06-22T02:21:23;17.90;;;15.63;;
12625;SDS011;6378;42.684;23.372;2023-06-22T02:23:48;16.98;;;15.10;;
12625;SDS011;6378;42.684;23.372;2023-06-22T02:26:15;17.38;;;15.57;;
12625;SDS011;6378;42.684;23.372;2023-06-22T02:28:42;21.10;;;18.60;;
12625;SDS011;6378;42.684;23.372;2023-06-22T02:31:08;18.85;;;16.67;;
12625;SDS011;6378;42.684;23.372;2023-06-22T02:33:33;18.10;;;16.23;;
12625;SDS011;6378;42.684;23.372;2023-06-22T02:35:59;16.63;;;14.57;;
12625;SDS011;6378;42.684;23.372;2023-06-22T02:38:24;18.02;;;14.90;;
12625;SDS011;6378;42.684;23.372;2023-06-22T02:40:50;17.20;;;14.68;;
12625;SDS011;6378;42.684;23.372;2023-06-22T02:43:15;16.80;;;14.65;;
12625;SDS011;6378;42.684;23.372;2023-06-22T02:45:41;18.65;;;15.55;;
12625;SDS011;6378;42.684;23.372;2023-06-22T02:48:07;16.35;;;14.75;;
12625;SDS011;6378;42.684;23.372;2023-06-22T02:50:32;17.38;;;15.52;;
12625;SDS011;6378;42.684;23.372;2023-06-22T02:52:58;17.38;;;15.20;;
12625;SDS011;6378;42.684;23.372;2023-06-22T02:55:23;16.63;;;14.77;;
12625;SDS011;6378;42.684;23.372;2023-06-22T02:57:49;17.17;;;14.90;;
12625;SDS011;6378;42.684;23.372;2023-06-22T03:00:17;17.02;;;15.23;;
12625;SDS011;6378;42.684;23.372;2023-06-22T03:02:44;18.95;;;15.65;;
12625;SDS011;6378;42.684;23.372;2023-06-22T03:05:10;18.33;;;15.40;;
12625;SDS011;6378;42.684;23.372;2023-06-22T03:07:42;18.60;;;15.82;;
12625;SDS011;6378;42.684;23.372;2023-06-22T03:10:08;18.85;;;16.58;;
12625;SDS011;6378;42.684;23.372;2023-06-22T03:12:35;22.45;;;17.35;;
12625;SDS011;6378;42.684;23.372;2023-06-22T03:15:00;20.27;;;16.83;;
12625;SDS011;6378;42.684;23.372;2023-06-22T03:17:26;26.85;;;21.23;;
12625;SDS011;6378;42.684;23.372;2023-06-22T03:19:51;22.75;;;19.13;;
12625;SDS011;6378;42.684;23.372;2023-06-22T03:22:17;16.90;;;14.98;;
12625;SDS011;6378;42.684;23.372;2023-06-22T03:24:42;16.67;;;14.88;;
12625;SDS011;6378;42.684;23.372;2023-06-22T03:27:08;15.57;;;13.98;;
12625;SDS011;6378;42.684;23.372;2023-06-22T03:29:33;16.50;;;14.73;;
12625;SDS011;6378;42.684;23.372;2023-06-22T03:31:59;15.93;;;14.20;;
12625;SDS011;6378;42.684;23.372;2023-06-22T03:34:24;19.30;;;16.10;;
12625;SDS011;6378;42.684;23.372;2023-06-22T03:36:50;18.25;;;15.13;;
12625;SDS011;6378;42.684;23.372;2023-06-22T03:39:15;19.70;;;15.57;;
12625;SDS011;6378;42.684;23.372;2023-06-22T03:41:41;24.27;;;19.80;;
12625;SDS011;6378;42.684;23.372;2023-06-22T03:44:06;30.90;;;22.13;;
12625;SDS011;6378;42.684;23.372;2023-06-22T03:46:35;16.17;;;13.95;;
12625;SDS011;6378;42.684;23.372;2023-06-22T03:49:00;14.45;;;12.70;;
12625;SDS011;6378;42.684;23.372;2023-06-22T03:51:28;13.32;;;12.02;;
12625;SDS011;6378;42.684;23.372;2023-06-22T03:53:53;14.45;;;12.90;;
12625;SDS011;6378;42.684;23.372;2023-06-22T03:56:19;15.05;;;12.00;;
12625;SDS011;6378;42.684;23.372;2023-06-22T03:58:45;14.00;;;12.63;;
12625;SDS011;6378;42.684;23.372;2023-06-22T04:01:11;13.73;;;12.32;;
12625;SDS011;6378;42.684;23.372;2023-06-22T04:03:37;13.73;;;12.23;;
12625;SDS011;6378;42.684;23.372;2023-06-22T04:06:03;16.55;;;12.15;;
12625;SDS011;6378;42.684;23.372;2023-06-22T04:08:29;15.68;;;12.15;;
12625;SDS011;6378;42.684;23.372;2023-06-22T04:10:54;15.27;;;13.13;;
12625;SDS011;6378;42.684;23.372;2023-06-22T04:13:20;16.85;;;14.52;;
12625;SDS011;6378;42.684;23.372;2023-06-22T04:15:46;20.10;;;17.45;;
12625;SDS011;6378;42.684;23.372;2023-06-22T04:18:11;17.90;;;15.95;;
12625;SDS011;6378;42.684;23.372;2023-06-22T04:20:36;15.13;;;13.63;;
12625;SDS011;6378;42.684;23.372;2023-06-22T04:23:02;14.07;;;12.65;;
12625;SDS011;6378;42.684;23.372;2023-06-22T04:25:27;22.75;;;14.07;;
12625;SDS011;6378;42.684;23.372;2023-06-22T04:27:53;20.35;;;15.85;;
12625;SDS011;6378;42.684;23.372;2023-06-22T04:30:18;20.30;;;13.65;;
12625;SDS011;6378;42.684;23.372;2023-06-22T04:32:44;15.73;;;13.93;;
12625;SDS011;6378;42.684;23.372;2023-06-22T04:35:10;15.20;;;13.65;;
12625;SDS011;6378;42.684;23.372;2023-06-22T04:37:36;16.10;;;14.40;;
12625;SDS011;6378;42.684;23.372;2023-06-22T04:40:01;18.02;;;14.57;;
12625;SDS011;6378;42.684;23.372;2023-06-22T04:42:30;17.13;;;14.57;;
12625;SDS011;6378;42.684;23.372;2023-06-22T04:44:57;17.02;;;15.00;;
12625;SDS011;6378;42.684;23.372;2023-06-22T04:47:22;26.15;;;21.30;;
12625;SDS011;6378;42.684;23.372;2023-06-22T04:49:47;24.88;;;21.85;;
12625;SDS011;6378;42.684;23.372;2023-06-22T04:52:13;16.70;;;14.90;;
12625;SDS011;6378;42.684;23.372;2023-06-22T04:54:42;19.05;;;17.05;;
12625;SDS011;6378;42.684;23.372;2023-06-22T04:57:15;19.05;;;17.15;;
12625;SDS011;6378;42.684;23.372;2023-06-22T04:59:42;17.40;;;15.45;;
12625;SDS011;6378;42.684;23.372;2023-06-22T05:02:07;18.58;;;15.30;;
12625;SDS011;6378;42.684;23.372;2023-06-22T05:04:33;18.15;;;14.48;;
12625;SDS011;6378;42.684;23.372;2023-06-22T05:07:03;15.30;;;13.70;;
12625;SDS011;6378;42.684;23.372;2023-06-22T05:09:29;15.15;;;13.30;;
12625;SDS011;6378;42.684;23.372;2023-06-22T05:11:55;34.55;;;28.08;;
12625;SDS011;6378;42.684;23.372;2023-06-22T05:14:24;19.75;;;16.65;;
12625;SDS011;6378;42.684;23.372;2023-06-22T05:16:50;16.35;;;12.88;;
12625;SDS011;6378;42.684;23.372;2023-06-22T05:19:17;16.65;;;14.85;;
12625;SDS011;6378;42.684;23.372;2023-06-22T05:21:42;18.17;;;13.45;;
12625;SDS011;6378;42.684;23.372;2023-06-22T05:24:08;15.65;;;13.90;;
12625;SDS011;6378;42.684;23.372;2023-06-22T05:26:33;16.52;;;13.35;;
12625;SDS011;6378;42.684;23.372;2023-06-22T05:29:00;15.00;;;13.40;;
12625;SDS011;6378;42.684;23.372;2023-06-22T05:31:27;14.32;;;12.20;;
12625;SDS011;6378;42.684;23.372;2023-06-22T05:33:53;13.85;;;12.30;;
12625;SDS011;6378;42.684;23.372;2023-06-22T05:36:19;14.68;;;13.18;;
12625;SDS011;6378;42.684;23.372;2023-06-22T05:38:46;13.40;;;12.00;;
12625;SDS011;6378;42.684;23.372;2023-06-22T05:41:12;13.20;;;11.90;;
12625;SDS011;6378;42.684;23.372;2023-06-22T05:43:39;13.52;;;12.18;;
12625;SDS011;6378;42.684;23.372;2023-06-22T05:46:05;13.40;;;12.05;;
12625;SDS011;6378;42.684;23.372;2023-06-22T05:48:31;13.13;;;11.82;;
12625;SDS011;6378;42.684;23.372;2023-06-22T05:50:56;16.25;;;13.93;;
12625;SDS011;6378;42.684;23.372;2023-06-22T05:53:22;12.90;;;11.63;;
12625;SDS011;6378;42.684;23.372;2023-06-22T05:55:48;13.88;;;12.48;;
12625;SDS011;6378;42.684;23.372;2023-06-22T05:58:13;13.13;;;11.82;;
12625;SDS011;6378;42.684;23.372;2023-06-22T06:00:39;12.55;;;11.23;;
12625;SDS011;6378;42.684;23.372;2023-06-22T06:03:06;13.35;;;12.05;;
12625;SDS011;6378;42.684;23.372;2023-06-22T06:05:33;18.13;;;13.98;;
12625;SDS011;6378;42.684;23.372;2023-06-22T06:07:59;14.52;;;12.45;;
12625;SDS011;6378;42.684;23.372;2023-06-22T06:10:26;16.00;;;14.30;;
12625;SDS011;6378;42.684;23.372;2023-06-22T06:12:52;17.35;;;15.48;;
12625;SDS011;6378;42.684;23.372;2023-06-22T06:15:18;18.23;;;16.38;;
12625;SDS011;6378;42.684;23.372;2023-06-22T06:17:47;15.55;;;13.95;;
12625;SDS011;6378;42.684;23.372;2023-06-22T06:20:14;16.65;;;14.23;;
12625;SDS011;6378;42.684;23.372;2023-06-22T06:22:40;17.08;;;14.90;;
12625;SDS011;6378;42.684;23.372;2023-06-22T06:25:05;19.10;;;17.25;;
12625;SDS011;6378;42.684;23.372;2023-06-22T06:27:31;18.05;;;15.80;;
12625;SDS011;6378;42.684;23.372;2023-06-22T06:29:56;17.52;;;15.57;;
12625;SDS011;6378;42.684;23.372;2023-06-22T06:32:22;17.33;;;15.38;;
12625;SDS011;6378;42.684;23.372;2023-06-22T06:34:47;18.70;;;16.60;;
12625;SDS011;6378;42.684;23.372;2023-06-22T06:37:13;18.88;;;16.55;;
12625;SDS011;6378;42.684;23.372;2023-06-22T06:39:38;17.27;;;14.77;;
12625;SDS011;6378;42.684;23.372;2023-06-22T06:42:04;17.35;;;15.55;;
12625;SDS011;6378;42.684;23.372;2023-06-22T06:44:30;15.65;;;14.07;;
12625;SDS011;6378;42.684;23.372;2023-06-22T06:46:55;18.15;;;15.82;;
12625;SDS011;6378;42.684;23.372;2023-06-22T06:49:21;17.45;;;15.23;;
12625;SDS011;6378;42.684;23.372;2023-06-22T06:51:46;20.33;;;16.25;;
12625;SDS011;6378;42.684;23.372;2023-06-22T06:54:12;17.20;;;15.52;;
12625;SDS011;6378;42.684;23.372;2023-06-22T06:56:37;16.80;;;14.60;;
12625;SDS011;6378;42.684;23.372;2023-06-22T06:59:03;16.75;;;14.75;;
12625;SDS011;6378;42.684;23.372;2023-06-22T07:01:28;16.23;;;14.48;;
12625;SDS011;6378;42.684;23.372;2023-06-22T07:03:58;16.65;;;14.30;;
12625;SDS011;6378;42.684;23.372;2023-06-22T07:06:23;15.52;;;13.93;;
12625;SDS011;6378;42.684;23.372;2023-06-22T07:08:54;16.02;;;13.95;;
12625;SDS011;6378;42.684;23.372;2023-06-22T07:11:20;17.35;;;13.10;;
12625;SDS011;6378;42.684;23.372;2023-06-22T07:13:45;27.92;;;16.15;;
12625;SDS011;6378;42.684;23.372;2023-06-22T07:16:11;18.70;;;13.50;;
12625;SDS011;6378;42.684;23.372;2023-06-22T07:18:36;17.83;;;13.82;;
12625;SDS011;6378;42.684;23.372;2023-06-22T07:21:01;17.02;;;13.35;;
12625;SDS011;6378;42.684;23.372;2023-06-22T07:23:28;14.52;;;13.05;;
12625;SDS011;6378;42.684;23.372;2023-06-22T07:25:54;15.82;;;14.23;;
12625;SDS011;6378;42.684;23.372;2023-06-22T07:28:19;15.63;;;13.32;;
12625;SDS011;6378;42.684;23.372;2023-06-22T07:30:45;15.40;;;13.52;;
12625;SDS011;6378;42.684;23.372;2023-06-22T07:33:11;15.77;;;13.85;;
12625;SDS011;6378;42.684;23.372;2023-06-22T07:35:36;14.48;;;12.85;;
12625;SDS011;6378;42.684;23.372;2023-06-22T07:38:02;15.00;;;13.45;;
12625;SDS011;6378;42.684;23.372;2023-06-22T07:40:28;17.77;;;14.20;;
12625;SDS011;6378;42.684;23.372;2023-06-22T07:42:54;14.32;;;12.75;;
12625;SDS011;6378;42.684;23.372;2023-06-22T07:45:19;14.05;;;12.70;;
12625;SDS011;6378;42.684;23.372;2023-06-22T07:47:45;14.85;;;13.38;;
12625;SDS011;6378;42.684;23.372;2023-06-22T07:50:10;17.58;;;13.05;;
12625;SDS011;6378;42.684;23.372;2023-06-22T07:52:36;16.27;;;13.13;;
12625;SDS011;6378;42.684;23.372;2023-06-22T07:55:01;13.90;;;12.50;;
12625;SDS011;6378;42.684;23.372;2023-06-22T07:57:27;14.68;;;13.18;;
12625;SDS011;6378;42.684;23.372;2023-06-22T07:59:58;15.23;;;12.63;;
12625;SDS011;6378;42.684;23.372;2023-06-22T08:02:25;15.65;;;12.35;;
12625;SDS011;6378;42.684;23.372;2023-06-22T08:04:51;13.98;;;12.00;;
12625;SDS011;6378;42.684;23.372;2023-06-22T08:07:16;17.70;;;13.40;;
12625;SDS011;6378;42.684;23.372;2023-06-22T08:09:46;13.82;;;12.30;;
12625;SDS011;6378;42.684;23.372;2023-06-22T08:12:12;14.38;;;12.80;;
12625;SDS011;6378;42.684;23.372;2023-06-22T08:14:38;16.42;;;12.60;;
12625;SDS011;6378;42.684;23.372;2023-06-22T08:17:04;15.18;;;12.50;;
12625;SDS011;6378;42.684;23.372;2023-06-22T08:19:30;14.75;;;13.25;;
12625;SDS011;6378;42.684;23.372;2023-06-22T08:21:55;15.65;;;13.52;;
12625;SDS011;6378;42.684;23.372;2023-06-22T08:24:22;15.10;;;12.68;;
12625;SDS011;6378;42.684;23.372;2023-06-22T08:26:47;20.98;;;16.63;;
12625;SDS011;6378;42.684;23.372;2023-06-22T08:29:13;15.52;;;13.50;;
12625;SDS011;6378;42.684;23.372;2023-06-22T08:31:39;15.00;;;13.40;;
12625;SDS011;6378;42.684;23.372;2023-06-22T08:34:04;15.07;;;12.85;;
12625;SDS011;6378;42.684;23.372;2023-06-22T08:36:29;16.00;;;12.88;;
12625;SDS011;6378;42.684;23.372;2023-06-22T08:38:57;15.38;;;12.95;;
12625;SDS011;6378;42.684;23.372;2023-06-22T08:41:26;16.65;;;14.95;;
12625;SDS011;6378;42.684;23.372;2023-06-22T08:43:52;18.33;;;14.98;;
12625;SDS011;6378;42.684;23.372;2023-06-22T08:46:18;17.13;;;14.77;;
12625;SDS011;6378;42.684;23.372;2023-06-22T08:48:47;19.55;;;14.68;;
12625;SDS011;6378;42.684;23.372;2023-06-22T08:51:12;18.40;;;14.40;;
12625;SDS011;6378;42.684;23.372;2023-06-22T08:53:39;17.55;;;15.80;;
12625;SDS011;6378;42.684;23.372;2023-06-22T08:56:04;19.17;;;15.00;;
12625;SDS011;6378;42.684;23.372;2023-06-22T08:58:29;19.13;;;15.80;;
12625;SDS011;6378;42.684;23.372;2023-06-22T09:00:55;17.77;;;15.27;;
12625;SDS011;6378;42.684;23.372;2023-06-22T09:03:20;17.73;;;15.10;;
12625;SDS011;6378;42.684;23.372;2023-06-22T09:05:46;18.83;;;15.43;;
12625;SDS011;6378;42.684;23.372;2023-06-22T09:08:11;16.92;;;15.10;;
12625;SDS011;6378;42.684;23.372;2023-06-22T09:10:37;18.05;;;15.32;;
12625;SDS011;6378;42.684;23.372;2023-06-22T09:13:02;18.00;;;14.65;;
12625;SDS011;6378;42.684;23.372;2023-06-22T09:15:28;16.85;;;14.73;;
12625;SDS011;6378;42.684;23.372;2023-06-22T09:17:53;18.25;;;14.48;;
12625;SDS011;6378;42.684;23.372;2023-06-22T09:20:19;16.08;;;14.40;;
12625;SDS011;6378;42.684;23.372;2023-06-22T09:22:45;16.67;;;14.23;;
12625;SDS011;6378;42.684;23.372;2023-06-22T09:25:10;16.27;;;13.23;;
12625;SDS011;6378;42.684;23.372;2023-06-22T09:27:36;20.70;;;15.18;;
12625;SDS011;6378;42.684;23.372;2023-06-22T09:30:05;15.90;;;13.70;;
12625;SDS011;6378;42.684;23.372;2023-06-22T09:32:31;17.85;;;14.27;;
12625;SDS011;6378;42.684;23.372;2023-06-22T09:34:57;14.45;;;13.05;;
12625;SDS011;6378;42.684;23.372;2023-06-22T09:37:22;13.88;;;12.43;;
12625;SDS011;6378;42.684;23.372;2023-06-22T09:39:47;14.77;;;13.10;;
12625;SDS011;6378;42.684;23.372;2023-06-22T09:42:13;14.20;;;12.90;;
12625;SDS011;6378;42.684;23.372;2023-06-22T09:44:38;14.20;;;12.77;;
12625;SDS011;6378;42.684;23.372;2023-06-22T09:47:04;15.10;;;12.48;;
12625;SDS011;6378;42.684;23.372;2023-06-22T09:49:30;12.88;;;11.73;;
12625;SDS011;6378;42.684;23.372;2023-06-22T09:51:57;13.38;;;12.07;;
12625;SDS011;6378;42.684;23.372;2023-06-22T09:54:22;14.63;;;13.18;;
12625;SDS011;6378;42.684;23.372;2023-06-22T09:56:48;15.75;;;12.05;;
12625;SDS011;6378;42.684;23.372;2023-06-22T09:59:13;17.75;;;12.90;;
12625;SDS011;6378;42.684;23.372;2023-06-22T10:01:51;12.07;;;10.98;;
12625;SDS011;6378;42.684;23.372;2023-06-22T10:04:29;12.30;;;11.05;;
12625;SDS011;6378;42.684;23.372;2023-06-22T10:06:55;13.50;;;12.10;;
12625;SDS011;6378;42.684;23.372;2023-06-22T10:09:20;14.43;;;11.75;;
12625;SDS011;6378;42.684;23.372;2023-06-22T10:11:54;11.80;;;10.60;;
12625;SDS011;6378;42.684;23.372;2023-06-22T10:14:19;12.07;;;10.88;;
12625;SDS011;6378;42.684;23.372;2023-06-22T10:16:52;12.10;;;10.90;;
12625;SDS011;6378;42.684;23.372;2023-06-22T10:19:17;11.05;;;9.95;;
12625;SDS011;6378;42.684;23.372;2023-06-22T10:22:03;10.13;;;9.23;;
12625;SDS011;6378;42.684;23.372;2023-06-22T10:27:41;10.85;;;9.93;;
12625;SDS011;6378;42.684;23.372;2023-06-22T10:33:16;11.35;;;10.23;;
12625;SDS011;6378;42.684;23.372;2023-06-22T10:35:56;10.05;;;9.05;;
12625;SDS011;6378;42.684;23.372;2023-06-22T10:38:21;16.30;;;14.68;;
12625;SDS011;6378;42.684;23.372;2023-06-22T10:40:47;17.50;;;15.85;;
12625;SDS011;6378;42.684;23.372;2023-06-22T10:43:12;11.55;;;10.55;;
12625;SDS011;6378;42.684;23.372;2023-06-22T10:45:38;11.00;;;10.00;;
12625;SDS011;6378;42.684;23.372;2023-06-22T10:48:03;11.43;;;10.43;;
12625;SDS011;6378;42.684;23.372;2023-06-22T10:50:29;13.07;;;11.70;;
12625;SDS011;6378;42.684;23.372;2023-06-22T10:52:54;40.72;;;12.95;;
12625;SDS011;6378;42.684;23.372;2023-06-22T10:55:20;12.75;;;11.55;;
12625;SDS011;6378;42.684;23.372;2023-06-22T10:57:45;10.68;;;9.65;;
12625;SDS011;6378;42.684;23.372;2023-06-22T11:00:12;9.77;;;8.98;;
12625;SDS011;6378;42.684;23.372;2023-06-22T11:02:38;10.10;;;9.30;;
12625;SDS011;6378;42.684;23.372;2023-06-22T11:05:04;11.60;;;10.57;;
12625;SDS011;6378;42.684;23.372;2023-06-22T11:07:30;11.00;;;10.00;;
12625;SDS011;6378;42.684;23.372;2023-06-22T11:09:56;11.27;;;10.27;;
12625;SDS011;6378;42.684;23.372;2023-06-22T11:12:21;11.38;;;10.27;;
12625;SDS011;6378;42.684;23.372;2023-06-22T11:14:47;10.98;;;9.48;;
12625;SDS011;6378;42.684;23.372;2023-06-22T11:17:12;10.70;;;9.70;;
12625;SDS011;6378;42.684;23.372;2023-06-22T11:19:38;11.32;;;10.23;;
12625;SDS011;6378;42.684;23.372;2023-06-22T11:22:03;11.30;;;10.35;;
12625;SDS011;6378;42.684;23.372;2023-06-22T11:24:29;19.50;;;10.95;;
12625;SDS011;6378;42.684;23.372;2023-06-22T11:26:54;11.23;;;10.00;;
12625;SDS011;6378;42.684;23.372;2023-06-22T11:29:20;11.15;;;10.15;;
12625;SDS011;6378;42.684;23.372;2023-06-22T11:31:45;11.27;;;10.00;;
12625;SDS011;6378;42.684;23.372;2023-06-22T11:34:10;10.40;;;9.15;;
12625;SDS011;6378;42.684;23.372;2023-06-22T11:36:36;10.75;;;9.68;;
12625;SDS011;6378;42.684;23.372;2023-06-22T11:39:02;12.95;;;11.75;;
12625;SDS011;6378;42.684;23.372;2023-06-22T11:41:27;10.48;;;9.57;;
12625;SDS011;6378;42.684;23.372;2023-06-22T11:43:53;16.33;;;14.73;;
12625;SDS011;6378;42.684;23.372;2023-06-22T11:46:18;10.45;;;9.50;;
12625;SDS011;6378;42.684;23.372;2023-06-22T11:48:44;10.75;;;9.75;;
12625;SDS011;6378;42.684;23.372;2023-06-22T11:51:09;10.45;;;9.40;;
12625;SDS011;6378;42.684;23.372;2023-06-22T11:53:35;10.40;;;9.50;;
12625;SDS011;6378;42.684;23.372;2023-06-22T11:56:00;11.60;;;10.40;;
12625;SDS011;6378;42.684;23.372;2023-06-22T11:58:26;10.82;;;9.93;;
12625;SDS011;6378;42.684;23.372;2023-06-22T12:00:52;11.57;;;10.23;;
12625;SDS011;6378;42.684;23.372;2023-06-22T12:03:19;11.38;;;10.35;;
12625;SDS011;6378;42.684;23.372;2023-06-22T12:05:46;10.90;;;9.90;;
12625;SDS011;6378;42.684;23.372;2023-06-22T12:08:12;10.68;;;9.68;;
12625;SDS011;6378;42.684;23.372;2023-06-22T12:10:38;11.05;;;10.13;;
12625;SDS011;6378;42.684;23.372;2023-06-22T12:13:04;11.55;;;10.55;;
12625;SDS011;6378;42.684;23.372;2023-06-22T12:15:30;11.57;;;10.38;;
12625;SDS011;6378;42.684;23.372;2023-06-22T12:17:55;11.13;;;10.13;;
12625;SDS011;6378;42.684;23.372;2023-06-22T12:20:20;9.75;;;8.85;;
12625;SDS011;6378;42.684;23.372;2023-06-22T12:22:46;11.38;;;10.15;;
12625;SDS011;6378;42.684;23.372;2023-06-22T12:25:12;11.95;;;10.05;;
12625;SDS011;6378;42.684;23.372;2023-06-22T12:27:38;10.48;;;9.57;;
12625;SDS011;6378;42.684;23.372;2023-06-22T12:30:03;11.63;;;10.18;;
12625;SDS011;6378;42.684;23.372;2023-06-22T12:32:30;11.52;;;10.43;;
12625;SDS011;6378;42.684;23.372;2023-06-22T12:34:55;12.57;;;10.93;;
12625;SDS011;6378;42.684;23.372;2023-06-22T12:37:21;11.38;;;10.38;;
12625;SDS011;6378;42.684;23.372;2023-06-22T12:39:47;12.05;;;10.65;;
12625;SDS011;6378;42.684;23.372;2023-06-22T12:42:13;13.07;;;11.20;;
12625;SDS011;6378;42.684;23.372;2023-06-22T12:44:38;13.07;;;11.25;;
12625;SDS011;6378;42.684;23.372;2023-06-22T12:47:07;15.85;;;12.00;;
12625;SDS011;6378;42.684;23.372;2023-06-22T12:49:34;12.82;;;11.63;;
12625;SDS011;6378;42.684;23.372;2023-06-22T12:52:00;15.70;;;12.82;;
12625;SDS011;6378;42.684;23.372;2023-06-22T12:54:25;13.35;;;11.95;;
12625;SDS011;6378;42.684;23.372;2023-06-22T12:56:51;12.98;;;11.27;;
12625;SDS011;6378;42.684;23.372;2023-06-22T12:59:16;12.80;;;11.23;;
12625;SDS011;6378;42.684;23.372;2023-06-22T13:01:44;12.90;;;11.55;;
12625;SDS011;6378;42.684;23.372;2023-06-22T13:04:11;13.05;;;11.65;;
12625;SDS011;6378;42.684;23.372;2023-06-22T13:06:39;15.85;;;12.00;;
12625;SDS011;6378;42.684;23.372;2023-06-22T13:09:09;13.27;;;11.93;;
12625;SDS011;6378;42.684;23.372;2023-06-22T13:11:35;15.98;;;11.73;;
12625;SDS011;6378;42.684;23.372;2023-06-22T13:14:00;25.17;;;16.23;;
12625;SDS011;6378;42.684;23.372;2023-06-22T13:16:25;13.10;;;11.73;;
12625;SDS011;6378;42.684;23.372;2023-06-22T13:18:51;14.52;;;11.52;;
12625;SDS011;6378;42.684;23.372;2023-06-22T13:21:16;12.43;;;11.13;;
12625;SDS011;6378;42.684;23.372;2023-06-22T13:23:42;12.05;;;10.63;;
12625;SDS011;6378;42.684;23.372;2023-06-22T13:26:07;17.02;;;11.98;;
12625;SDS011;6378;42.684;23.372;2023-06-22T13:28:33;11.93;;;10.60;;
12625;SDS011;6378;42.684;23.372;2023-06-22T13:30:58;13.32;;;12.02;;
12625;SDS011;6378;42.684;23.372;2023-06-22T13:33:23;15.82;;;12.30;;
12625;SDS011;6378;42.684;23.372;2023-06-22T13:35:49;13.75;;;11.45;;
12625;SDS011;6378;42.684;23.372;2023-06-22T13:38:14;16.05;;;12.02;;
12625;SDS011;6378;42.684;23.372;2023-06-22T13:40:40;14.07;;;12.43;;
12625;SDS011;6378;42.684;23.372;2023-06-22T13:43:05;14.07;;;12.65;;
12625;SDS011;6378;42.684;23.372;2023-06-22T13:45:31;17.08;;;14.05;;
12625;SDS011;6378;42.684;23.372;2023-06-22T13:47:57;15.40;;;11.77;;
12625;SDS011;6378;42.684;23.372;2023-06-22T13:50:23;13.43;;;12.07;;
12625;SDS011;6378;42.684;23.372;2023-06-22T13:52:48;14.77;;;12.30;;
12625;SDS011;6378;42.684;23.372;2023-06-22T13:55:14;12.82;;;11.48;;
12625;SDS011;6378;42.684;23.372;2023-06-22T13:57:40;16.23;;;12.07;;
12625;SDS011;6378;42.684;23.372;2023-06-22T14:00:06;15.38;;;12.55;;
12625;SDS011;6378;42.684;23.372;2023-06-22T14:02:33;13.30;;;11.98;;
12625;SDS011;6378;42.684;23.372;2023-06-22T14:04:59;14.18;;;11.90;;
12625;SDS011;6378;42.684;23.372;2023-06-22T14:07:24;14.05;;;12.38;;
12625;SDS011;6378;42.684;23.372;2023-06-22T14:09:50;14.18;;;11.57;;
12625;SDS011;6378;42.684;23.372;2023-06-22T14:12:15;16.42;;;12.10;;
12625;SDS011;6378;42.684;23.372;2023-06-22T14:14:43;14.43;;;11.65;;
12625;SDS011;6378;42.684;23.372;2023-06-22T14:17:09;14.82;;;11.63;;
12625;SDS011;6378;42.684;23.372;2023-06-22T14:19:35;14.43;;;11.15;;
12625;SDS011;6378;42.684;23.372;2023-06-22T14:22:00;13.88;;;11.55;;
12625;SDS011;6378;42.684;23.372;2023-06-22T14:24:26;14.30;;;12.07;;
12625;SDS011;6378;42.684;23.372;2023-06-22T14:26:51;14.63;;;12.55;;
12625;SDS011;6378;42.684;23.372;2023-06-22T14:29:17;18.60;;;14.07;;
12625;SDS011;6378;42.684;23.372;2023-06-22T14:31:44;16.88;;;13.20;;
12625;SDS011;6378;42.684;23.372;2023-06-22T14:34:11;14.52;;;13.02;;